sensor_id;sensor_type;location;lat;lon;timestamp;P1;durP1;ratioP1;P2;durP2;ratioP2
26223;SDS011;14820;48.682;8.890;2022-10-22T00:00:11;1.17;;;0.43;;
26223;SDS011;14820;48.682;8.890;2022-10-22T00:02:40;2.10;;;0.55;;
26223;SDS011;14820;48.682;8.890;2022-10-22T00:05:06;2.88;;;0.70;;
26223;SDS011;14820;48.682;8.890;2022-10-22T00:07:32;3.55;;;0.80;;
26223;SDS011;14820;48.682;8.890;2022-10-22T00:09:58;0.40;;;0.40;;
26223;SDS011;14820;48.682;8.890;2022-10-22T00:12:24;0.65;;;0.50;;
26223;SDS011;14820;48.682;8.890;2022-10-22T00:14:50;1.58;;;0.55;;
26223;SDS011;14820;48.682;8.890;2022-10-22T00:17:16;2.17;;;0.60;;
26223;SDS011;14820;48.682;8.890;2022-10-22T00:19:42;1.35;;;0.68;;
26223;SDS011;14820;48.682;8.890;2022-10-22T00:22:08;0.75;;;0.50;;
26223;SDS011;14820;48.682;8.890;2022-10-22T00:24:35;1.33;;;0.60;;
26223;SDS011;14820;48.682;8.890;2022-10-22T00:27:02;2.08;;;0.60;;
26223;SDS011;14820;48.682;8.890;2022-10-22T00:29:28;1.08;;;0.60;;
26223;SDS011;14820;48.682;8.890;2022-10-22T00:31:54;0.95;;;0.50;;
26223;SDS011;14820;48.682;8.890;2022-10-22T00:34:19;2.45;;;0.70;;
26223;SDS011;14820;48.682;8.890;2022-10-22T00:36:49;1.88;;;0.65;;
26223;SDS011;14820;48.682;8.890;2022-10-22T00:39:16;0.52;;;0.52;;
26223;SDS011;14820;48.682;8.890;2022-10-22T00:41:44;2.20;;;0.90;;
26223;SDS011;14820;48.682;8.890;2022-10-22T00:47:14;2.55;;;0.70;;
26223;SDS011;14820;48.682;8.890;2022-10-22T00:49:42;1.30;;;0.60;;
26223;SDS011;14820;48.682;8.890;2022-10-22T00:52:09;2.33;;;0.60;;
26223;SDS011;14820;48.682;8.890;2022-10-22T00:54:36;3.28;;;0.80;;
26223;SDS011;14820;48.682;8.890;2022-10-22T00:57:03;4.63;;;0.93;;
26223;SDS011;14820;48.682;8.890;2022-10-22T00:59:28;2.35;;;0.60;;
26223;SDS011;14820;48.682;8.890;2022-10-22T01:01:55;1.42;;;0.50;;
26223;SDS011;14820;48.682;8.890;2022-10-22T01:04:20;1.15;;;0.55;;
26223;SDS011;14820;48.682;8.890;2022-10-22T01:06:46;1.58;;;0.60;;
26223;SDS011;14820;48.682;8.890;2022-10-22T01:09:25;1.48;;;0.60;;
26223;SDS011;14820;48.682;8.890;2022-10-22T01:17:09;1.30;;;0.60;;
26223;SDS011;14820;48.682;8.890;2022-10-22T01:20:29;1.25;;;0.60;;
26223;SDS011;14820;48.682;8.890;2022-10-22T01:31:09;0.93;;;0.60;;
26223;SDS011;14820;48.682;8.890;2022-10-22T01:33:36;0.50;;;0.50;;
26223;SDS011;14820;48.682;8.890;2022-10-22T01:36:04;2.13;;;0.70;;
26223;SDS011;14820;48.682;8.890;2022-10-22T01:38:30;2.75;;;0.90;;
26223;SDS011;14820;48.682;8.890;2022-10-22T01:40:57;1.27;;;0.70;;
26223;SDS011;14820;48.682;8.890;2022-10-22T01:43:23;1.40;;;0.70;;
26223;SDS011;14820;48.682;8.890;2022-10-22T01:45:50;0.85;;;0.57;;
26223;SDS011;14820;48.682;8.890;2022-10-22T01:53:31;1.10;;;0.80;;
26223;SDS011;14820;48.682;8.890;2022-10-22T02:01:48;1.38;;;0.70;;
26223;SDS011;14820;48.682;8.890;2022-10-22T02:04:28;1.30;;;0.80;;
26223;SDS011;14820;48.682;8.890;2022-10-22T02:07:00;1.30;;;0.73;;
26223;SDS011;14820;48.682;8.890;2022-10-22T02:09:30;0.90;;;0.70;;
26223;SDS011;14820;48.682;8.890;2022-10-22T02:11:58;3.67;;;0.68;;
26223;SDS011;14820;48.682;8.890;2022-10-22T02:14:26;1.75;;;0.75;;
26223;SDS011;14820;48.682;8.890;2022-10-22T02:16:54;1.08;;;0.70;;
26223;SDS011;14820;48.682;8.890;2022-10-22T02:19:25;1.90;;;0.70;;
26223;SDS011;14820;48.682;8.890;2022-10-22T02:21:57;1.52;;;0.70;;
26223;SDS011;14820;48.682;8.890;2022-10-22T02:24:23;4.18;;;0.80;;
26223;SDS011;14820;48.682;8.890;2022-10-22T02:29:40;0.70;;;0.60;;
26223;SDS011;14820;48.682;8.890;2022-10-22T02:32:13;2.25;;;0.85;;
26223;SDS011;14820;48.682;8.890;2022-10-22T02:34:42;3.50;;;0.80;;
26223;SDS011;14820;48.682;8.890;2022-10-22T02:37:11;2.17;;;0.63;;
26223;SDS011;14820;48.682;8.890;2022-10-22T02:39:37;0.90;;;0.50;;
26223;SDS011;14820;48.682;8.890;2022-10-22T02:42:04;0.88;;;0.75;;
26223;SDS011;14820;48.682;8.890;2022-10-22T02:44:30;1.65;;;0.73;;
26223;SDS011;14820;48.682;8.890;2022-10-22T02:46:55;2.70;;;0.70;;
26223;SDS011;14820;48.682;8.890;2022-10-22T02:49:22;0.57;;;0.50;;
26223;SDS011;14820;48.682;8.890;2022-10-22T02:51:47;1.30;;;0.60;;
26223;SDS011;14820;48.682;8.890;2022-10-22T02:54:13;2.63;;;1.08;;
26223;SDS011;14820;48.682;8.890;2022-10-22T02:56:38;0.68;;;0.60;;
26223;SDS011;14820;48.682;8.890;2022-10-22T02:59:04;3.47;;;0.55;;
26223;SDS011;14820;48.682;8.890;2022-10-22T03:01:30;4.53;;;0.80;;
26223;SDS011;14820;48.682;8.890;2022-10-22T03:03:55;1.75;;;0.60;;
26223;SDS011;14820;48.682;8.890;2022-10-22T03:06:21;3.40;;;0.60;;
26223;SDS011;14820;48.682;8.890;2022-10-22T03:08:47;3.60;;;0.60;;
26223;SDS011;14820;48.682;8.890;2022-10-22T03:11:12;0.88;;;0.50;;
26223;SDS011;14820;48.682;8.890;2022-10-22T03:13:38;1.10;;;0.47;;
26223;SDS011;14820;48.682;8.890;2022-10-22T03:16:04;1.08;;;0.52;;
26223;SDS011;14820;48.682;8.890;2022-10-22T03:18:33;1.23;;;0.55;;
26223;SDS011;14820;48.682;8.890;2022-10-22T03:23:45;1.40;;;0.60;;
26223;SDS011;14820;48.682;8.890;2022-10-22T03:26:12;1.40;;;0.70;;
26223;SDS011;14820;48.682;8.890;2022-10-22T03:28:38;0.60;;;0.60;;
26223;SDS011;14820;48.682;8.890;2022-10-22T03:31:05;0.73;;;0.60;;
26223;SDS011;14820;48.682;8.890;2022-10-22T03:33:31;4.18;;;0.75;;
26223;SDS011;14820;48.682;8.890;2022-10-22T03:35:57;2.60;;;0.60;;
26223;SDS011;14820;48.682;8.890;2022-10-22T03:38:24;1.40;;;0.68;;
26223;SDS011;14820;48.682;8.890;2022-10-22T03:40:50;1.45;;;0.60;;
26223;SDS011;14820;48.682;8.890;2022-10-22T03:43:16;2.95;;;0.63;;
26223;SDS011;14820;48.682;8.890;2022-10-22T03:45:42;3.17;;;0.63;;
26223;SDS011;14820;48.682;8.890;2022-10-22T03:48:08;1.73;;;0.65;;
26223;SDS011;14820;48.682;8.890;2022-10-22T03:50:33;3.90;;;0.60;;
26223;SDS011;14820;48.682;8.890;2022-10-22T03:52:59;3.03;;;1.02;;
26223;SDS011;14820;48.682;8.890;2022-10-22T03:55:25;3.25;;;0.88;;
26223;SDS011;14820;48.682;8.890;2022-10-22T03:57:50;2.83;;;0.60;;
26223;SDS011;14820;48.682;8.890;2022-10-22T04:00:16;2.45;;;0.60;;
26223;SDS011;14820;48.682;8.890;2022-10-22T04:02:42;2.03;;;0.60;;
26223;SDS011;14820;48.682;8.890;2022-10-22T04:05:08;1.10;;;0.60;;
26223;SDS011;14820;48.682;8.890;2022-10-22T04:07:33;1.08;;;0.57;;
26223;SDS011;14820;48.682;8.890;2022-10-22T04:09:59;2.92;;;0.80;;
26223;SDS011;14820;48.682;8.890;2022-10-22T04:12:25;1.55;;;0.65;;
26223;SDS011;14820;48.682;8.890;2022-10-22T04:14:50;1.30;;;0.70;;
26223;SDS011;14820;48.682;8.890;2022-10-22T04:17:16;2.30;;;0.77;;
26223;SDS011;14820;48.682;8.890;2022-10-22T04:19:42;0.73;;;0.52;;
26223;SDS011;14820;48.682;8.890;2022-10-22T04:22:07;1.20;;;0.70;;
26223;SDS011;14820;48.682;8.890;2022-10-22T04:24:33;3.42;;;0.85;;
26223;SDS011;14820;48.682;8.890;2022-10-22T04:26:59;2.28;;;0.60;;
26223;SDS011;14820;48.682;8.890;2022-10-22T04:29:24;0.57;;;0.55;;
26223;SDS011;14820;48.682;8.890;2022-10-22T04:31:50;4.20;;;0.70;;
26223;SDS011;14820;48.682;8.890;2022-10-22T04:34:16;2.15;;;0.70;;
26223;SDS011;14820;48.682;8.890;2022-10-22T04:36:41;1.52;;;0.88;;
26223;SDS011;14820;48.682;8.890;2022-10-22T04:39:07;1.75;;;0.77;;
26223;SDS011;14820;48.682;8.890;2022-10-22T04:41:36;1.30;;;0.70;;
26223;SDS011;14820;48.682;8.890;2022-10-22T04:44:03;1.30;;;1.08;;
26223;SDS011;14820;48.682;8.890;2022-10-22T04:46:29;1.23;;;0.90;;
26223;SDS011;14820;48.682;8.890;2022-10-22T04:48:56;1.27;;;0.57;;
26223;SDS011;14820;48.682;8.890;2022-10-22T04:51:23;2.13;;;0.73;;
26223;SDS011;14820;48.682;8.890;2022-10-22T04:53:51;2.08;;;0.80;;
26223;SDS011;14820;48.682;8.890;2022-10-22T04:58:45;2.13;;;0.73;;
26223;SDS011;14820;48.682;8.890;2022-10-22T05:01:16;2.85;;;0.60;;
26223;SDS011;14820;48.682;8.890;2022-10-22T05:03:44;2.88;;;0.70;;
26223;SDS011;14820;48.682;8.890;2022-10-22T05:06:11;1.15;;;0.65;;
26223;SDS011;14820;48.682;8.890;2022-10-22T05:08:37;1.95;;;0.65;;
26223;SDS011;14820;48.682;8.890;2022-10-22T05:11:13;2.58;;;0.60;;
26223;SDS011;14820;48.682;8.890;2022-10-22T05:13:39;0.60;;;0.60;;
26223;SDS011;14820;48.682;8.890;2022-10-22T05:16:05;1.25;;;0.50;;
26223;SDS011;14820;48.682;8.890;2022-10-22T05:18:35;0.85;;;0.70;;
26223;SDS011;14820;48.682;8.890;2022-10-22T05:21:02;0.50;;;0.50;;
26223;SDS011;14820;48.682;8.890;2022-10-22T05:23:30;3.58;;;0.70;;
26223;SDS011;14820;48.682;8.890;2022-10-22T05:25:56;3.22;;;0.60;;
26223;SDS011;14820;48.682;8.890;2022-10-22T05:28:25;1.73;;;0.57;;
26223;SDS011;14820;48.682;8.890;2022-10-22T05:30:52;1.08;;;0.60;;
26223;SDS011;14820;48.682;8.890;2022-10-22T05:33:21;1.48;;;0.70;;
26223;SDS011;14820;48.682;8.890;2022-10-22T05:35:50;1.23;;;0.60;;
26223;SDS011;14820;48.682;8.890;2022-10-22T05:38:16;3.83;;;0.77;;
26223;SDS011;14820;48.682;8.890;2022-10-22T05:40:43;0.80;;;0.80;;
26223;SDS011;14820;48.682;8.890;2022-10-22T05:43:09;5.05;;;0.93;;
26223;SDS011;14820;48.682;8.890;2022-10-22T05:45:36;1.10;;;0.75;;
26223;SDS011;14820;48.682;8.890;2022-10-22T05:48:05;1.58;;;0.70;;
26223;SDS011;14820;48.682;8.890;2022-10-22T05:50:36;1.48;;;0.60;;
26223;SDS011;14820;48.682;8.890;2022-10-22T05:53:02;1.10;;;0.60;;
26223;SDS011;14820;48.682;8.890;2022-10-22T05:55:29;0.52;;;0.40;;
26223;SDS011;14820;48.682;8.890;2022-10-22T05:58:01;1.48;;;0.70;;
26223;SDS011;14820;48.682;8.890;2022-10-22T06:00:27;2.20;;;0.88;;
26223;SDS011;14820;48.682;8.890;2022-10-22T06:02:53;1.38;;;0.70;;
26223;SDS011;14820;48.682;8.890;2022-10-22T06:05:19;0.93;;;0.60;;
26223;SDS011;14820;48.682;8.890;2022-10-22T06:07:44;2.92;;;0.52;;
26223;SDS011;14820;48.682;8.890;2022-10-22T06:10:14;2.90;;;0.90;;
26223;SDS011;14820;48.682;8.890;2022-10-22T06:12:43;0.70;;;0.60;;
26223;SDS011;14820;48.682;8.890;2022-10-22T06:15:10;5.28;;;0.82;;
26223;SDS011;14820;48.682;8.890;2022-10-22T06:17:36;1.52;;;0.68;;
26223;SDS011;14820;48.682;8.890;2022-10-22T06:20:02;2.47;;;0.82;;
26223;SDS011;14820;48.682;8.890;2022-10-22T06:22:28;2.58;;;1.33;;
26223;SDS011;14820;48.682;8.890;2022-10-22T06:24:54;1.85;;;1.23;;
26223;SDS011;14820;48.682;8.890;2022-10-22T06:27:20;1.00;;;0.90;;
26223;SDS011;14820;48.682;8.890;2022-10-22T06:29:46;2.22;;;0.80;;
26223;SDS011;14820;48.682;8.890;2022-10-22T06:32:12;2.80;;;0.73;;
26223;SDS011;14820;48.682;8.890;2022-10-22T06:34:38;1.52;;;0.65;;
26223;SDS011;14820;48.682;8.890;2022-10-22T06:37:03;0.80;;;0.60;;
26223;SDS011;14820;48.682;8.890;2022-10-22T06:39:29;1.90;;;0.82;;
26223;SDS011;14820;48.682;8.890;2022-10-22T06:41:55;1.95;;;0.90;;
26223;SDS011;14820;48.682;8.890;2022-10-22T06:44:21;2.15;;;1.23;;
26223;SDS011;14820;48.682;8.890;2022-10-22T06:46:50;1.63;;;1.40;;
26223;SDS011;14820;48.682;8.890;2022-10-22T06:49:16;3.97;;;1.23;;
26223;SDS011;14820;48.682;8.890;2022-10-22T06:51:43;2.30;;;1.50;;
26223;SDS011;14820;48.682;8.890;2022-10-22T06:54:08;1.83;;;1.63;;
26223;SDS011;14820;48.682;8.890;2022-10-22T06:56:35;2.97;;;1.10;;
26223;SDS011;14820;48.682;8.890;2022-10-22T06:59:01;1.95;;;1.02;;
26223;SDS011;14820;48.682;8.890;2022-10-22T07:01:28;1.63;;;1.17;;
26223;SDS011;14820;48.682;8.890;2022-10-22T07:03:55;1.00;;;0.90;;
26223;SDS011;14820;48.682;8.890;2022-10-22T07:06:22;1.67;;;1.10;;
26223;SDS011;14820;48.682;8.890;2022-10-22T07:08:48;2.50;;;1.40;;
26223;SDS011;14820;48.682;8.890;2022-10-22T07:11:15;1.58;;;1.20;;
26223;SDS011;14820;48.682;8.890;2022-10-22T07:13:42;3.60;;;0.98;;
26223;SDS011;14820;48.682;8.890;2022-10-22T07:16:08;1.45;;;1.35;;
26223;SDS011;14820;48.682;8.890;2022-10-22T07:18:35;2.08;;;1.30;;
26223;SDS011;14820;48.682;8.890;2022-10-22T07:21:02;4.60;;;1.45;;
26223;SDS011;14820;48.682;8.890;2022-10-22T07:23:28;1.95;;;1.30;;
26223;SDS011;14820;48.682;8.890;2022-10-22T07:25:54;2.13;;;1.45;;
26223;SDS011;14820;48.682;8.890;2022-10-22T07:28:20;3.20;;;1.63;;
26223;SDS011;14820;48.682;8.890;2022-10-22T07:30:45;3.25;;;1.45;;
26223;SDS011;14820;48.682;8.890;2022-10-22T07:33:11;2.45;;;1.52;;
26223;SDS011;14820;48.682;8.890;2022-10-22T07:35:38;2.13;;;1.42;;
26223;SDS011;14820;48.682;8.890;2022-10-22T07:38:05;2.15;;;1.48;;
26223;SDS011;14820;48.682;8.890;2022-10-22T07:40:32;2.10;;;1.83;;
26223;SDS011;14820;48.682;8.890;2022-10-22T07:42:59;4.38;;;1.85;;
26223;SDS011;14820;48.682;8.890;2022-10-22T07:45:25;2.17;;;1.60;;
26223;SDS011;14820;48.682;8.890;2022-10-22T07:47:50;2.58;;;1.67;;
26223;SDS011;14820;48.682;8.890;2022-10-22T07:50:16;4.40;;;1.80;;
26223;SDS011;14820;48.682;8.890;2022-10-22T07:52:42;2.42;;;1.63;;
26223;SDS011;14820;48.682;8.890;2022-10-22T07:55:08;3.72;;;1.67;;
26223;SDS011;14820;48.682;8.890;2022-10-22T07:57:34;3.25;;;1.33;;
26223;SDS011;14820;48.682;8.890;2022-10-22T08:00:01;2.13;;;1.75;;
26223;SDS011;14820;48.682;8.890;2022-10-22T08:02:28;2.50;;;1.50;;
26223;SDS011;14820;48.682;8.890;2022-10-22T08:04:54;2.63;;;1.90;;
26223;SDS011;14820;48.682;8.890;2022-10-22T08:07:21;4.00;;;1.73;;
26223;SDS011;14820;48.682;8.890;2022-10-22T08:09:47;4.18;;;1.98;;
26223;SDS011;14820;48.682;8.890;2022-10-22T08:12:12;4.35;;;2.00;;
26223;SDS011;14820;48.682;8.890;2022-10-22T08:14:38;3.10;;;1.90;;
26223;SDS011;14820;48.682;8.890;2022-10-22T08:17:04;2.03;;;1.65;;
26223;SDS011;14820;48.682;8.890;2022-10-22T08:19:29;3.33;;;1.85;;
26223;SDS011;14820;48.682;8.890;2022-10-22T08:21:56;2.33;;;1.65;;
26223;SDS011;14820;48.682;8.890;2022-10-22T08:24:22;2.60;;;1.70;;
26223;SDS011;14820;48.682;8.890;2022-10-22T08:26:51;2.90;;;1.42;;
26223;SDS011;14820;48.682;8.890;2022-10-22T08:29:18;4.07;;;1.63;;
26223;SDS011;14820;48.682;8.890;2022-10-22T08:31:45;3.75;;;1.90;;
26223;SDS011;14820;48.682;8.890;2022-10-22T08:34:11;3.25;;;1.90;;
26223;SDS011;14820;48.682;8.890;2022-10-22T08:36:36;2.25;;;1.65;;
26223;SDS011;14820;48.682;8.890;2022-10-22T08:39:02;4.63;;;2.00;;
26223;SDS011;14820;48.682;8.890;2022-10-22T08:41:28;5.35;;;2.10;;
26223;SDS011;14820;48.682;8.890;2022-10-22T08:49:23;2.55;;;1.55;;
26223;SDS011;14820;48.682;8.890;2022-10-22T08:51:55;1.50;;;1.40;;
26223;SDS011;14820;48.682;8.890;2022-10-22T08:54:42;1.70;;;1.40;;
26223;SDS011;14820;48.682;8.890;2022-10-22T08:57:22;3.00;;;1.50;;
26223;SDS011;14820;48.682;8.890;2022-10-22T09:00:15;3.47;;;1.30;;
26223;SDS011;14820;48.682;8.890;2022-10-22T09:08:16;1.83;;;1.52;;
26223;SDS011;14820;48.682;8.890;2022-10-22T09:10:47;3.28;;;1.40;;
26223;SDS011;14820;48.682;8.890;2022-10-22T09:13:35;1.83;;;1.27;;
26223;SDS011;14820;48.682;8.890;2022-10-22T09:16:10;1.25;;;0.90;;
26223;SDS011;14820;48.682;8.890;2022-10-22T09:26:57;1.33;;;0.88;;
26223;SDS011;14820;48.682;8.890;2022-10-22T09:29:24;1.63;;;1.00;;
26223;SDS011;14820;48.682;8.890;2022-10-22T09:31:58;2.38;;;1.20;;
26223;SDS011;14820;48.682;8.890;2022-10-22T09:34:23;0.98;;;0.82;;
26223;SDS011;14820;48.682;8.890;2022-10-22T09:36:56;2.10;;;1.15;;
26223;SDS011;14820;48.682;8.890;2022-10-22T09:39:24;2.83;;;0.90;;
26223;SDS011;14820;48.682;8.890;2022-10-22T09:41:52;2.80;;;1.17;;
26223;SDS011;14820;48.682;8.890;2022-10-22T09:44:17;3.22;;;0.80;;
26223;SDS011;14820;48.682;8.890;2022-10-22T09:46:44;2.85;;;0.95;;
26223;SDS011;14820;48.682;8.890;2022-10-22T09:49:22;4.15;;;1.23;;
26223;SDS011;14820;48.682;8.890;2022-10-22T09:51:55;3.35;;;0.90;;
26223;SDS011;14820;48.682;8.890;2022-10-22T09:54:36;4.78;;;1.25;;
26223;SDS011;14820;48.682;8.890;2022-10-22T09:57:19;29.77;;;3.35;;
26223;SDS011;14820;48.682;8.890;2022-10-22T09:59:50;4.25;;;1.60;;
26223;SDS011;14820;48.682;8.890;2022-10-22T10:02:21;2.33;;;1.30;;
26223;SDS011;14820;48.682;8.890;2022-10-22T10:04:52;1.77;;;1.00;;
26223;SDS011;14820;48.682;8.890;2022-10-22T10:09:50;9.82;;;1.35;;
26223;SDS011;14820;48.682;8.890;2022-10-22T10:12:39;3.70;;;1.27;;
26223;SDS011;14820;48.682;8.890;2022-10-22T10:15:36;5.18;;;1.17;;
26223;SDS011;14820;48.682;8.890;2022-10-22T10:20:38;5.88;;;1.67;;
26223;SDS011;14820;48.682;8.890;2022-10-22T10:34:53;2.92;;;0.90;;
26223;SDS011;14820;48.682;8.890;2022-10-22T10:43:12;5.63;;;1.35;;
26223;SDS011;14820;48.682;8.890;2022-10-22T10:56:31;2.95;;;1.25;;
26223;SDS011;14820;48.682;8.890;2022-10-22T11:05:06;1.65;;;0.95;;
26223;SDS011;14820;48.682;8.890;2022-10-22T11:07:51;4.22;;;1.13;;
26223;SDS011;14820;48.682;8.890;2022-10-22T11:10:29;2.25;;;1.05;;
26223;SDS011;14820;48.682;8.890;2022-10-22T11:13:21;4.43;;;1.13;;
26223;SDS011;14820;48.682;8.890;2022-10-22T11:16:03;2.50;;;1.02;;
26223;SDS011;14820;48.682;8.890;2022-10-22T11:18:34;2.25;;;1.00;;
26223;SDS011;14820;48.682;8.890;2022-10-22T11:24:03;2.03;;;0.80;;
26223;SDS011;14820;48.682;8.890;2022-10-22T11:26:46;2.25;;;0.90;;
26223;SDS011;14820;48.682;8.890;2022-10-22T11:29:20;1.55;;;0.90;;
26223;SDS011;14820;48.682;8.890;2022-10-22T11:31:57;5.50;;;1.10;;
26223;SDS011;14820;48.682;8.890;2022-10-22T11:34:44;6.03;;;1.33;;
26223;SDS011;14820;48.682;8.890;2022-10-22T11:37:12;4.75;;;1.00;;
26223;SDS011;14820;48.682;8.890;2022-10-22T11:39:57;2.75;;;0.88;;
26223;SDS011;14820;48.682;8.890;2022-10-22T11:42:33;2.35;;;1.08;;
26223;SDS011;14820;48.682;8.890;2022-10-22T11:47:42;2.05;;;0.82;;
26223;SDS011;14820;48.682;8.890;2022-10-22T11:53:20;4.35;;;0.90;;
26223;SDS011;14820;48.682;8.890;2022-10-22T11:56:02;2.72;;;1.00;;
26223;SDS011;14820;48.682;8.890;2022-10-22T11:58:38;2.53;;;0.95;;
26223;SDS011;14820;48.682;8.890;2022-10-22T12:03:43;2.33;;;1.02;;
26223;SDS011;14820;48.682;8.890;2022-10-22T12:16:17;5.57;;;1.48;;
26223;SDS011;14820;48.682;8.890;2022-10-22T12:18:47;2.80;;;1.08;;
26223;SDS011;14820;48.682;8.890;2022-10-22T12:21:15;6.03;;;1.85;;
26223;SDS011;14820;48.682;8.890;2022-10-22T12:23:42;3.85;;;1.35;;
26223;SDS011;14820;48.682;8.890;2022-10-22T12:26:23;6.40;;;1.40;;
26223;SDS011;14820;48.682;8.890;2022-10-22T12:28:57;3.60;;;1.30;;
26223;SDS011;14820;48.682;8.890;2022-10-22T12:31:24;3.13;;;1.35;;
26223;SDS011;14820;48.682;8.890;2022-10-22T12:33:59;2.33;;;1.00;;
26223;SDS011;14820;48.682;8.890;2022-10-22T12:36:26;3.72;;;0.77;;
26223;SDS011;14820;48.682;8.890;2022-10-22T12:39:00;4.15;;;1.10;;
26223;SDS011;14820;48.682;8.890;2022-10-22T12:41:35;3.00;;;1.10;;
26223;SDS011;14820;48.682;8.890;2022-10-22T12:44:03;2.58;;;1.20;;
26223;SDS011;14820;48.682;8.890;2022-10-22T12:46:32;2.47;;;1.02;;
26223;SDS011;14820;48.682;8.890;2022-10-22T12:49:00;2.40;;;1.17;;
26223;SDS011;14820;48.682;8.890;2022-10-22T12:51:29;2.38;;;0.80;;
26223;SDS011;14820;48.682;8.890;2022-10-22T12:53:56;4.07;;;1.05;;
26223;SDS011;14820;48.682;8.890;2022-10-22T12:56:28;4.43;;;1.10;;
26223;SDS011;14820;48.682;8.890;2022-10-22T13:01:28;5.80;;;1.88;;
26223;SDS011;14820;48.682;8.890;2022-10-22T13:06:45;2.70;;;1.10;;
26223;SDS011;14820;48.682;8.890;2022-10-22T13:09:20;2.30;;;0.80;;
26223;SDS011;14820;48.682;8.890;2022-10-22T13:11:52;4.57;;;1.00;;
26223;SDS011;14820;48.682;8.890;2022-10-22T13:14:26;3.03;;;0.82;;
26223;SDS011;14820;48.682;8.890;2022-10-22T13:20:02;2.50;;;1.30;;
26223;SDS011;14820;48.682;8.890;2022-10-22T13:22:34;4.47;;;1.50;;
26223;SDS011;14820;48.682;8.890;2022-10-22T13:25:17;6.78;;;2.13;;
26223;SDS011;14820;48.682;8.890;2022-10-22T13:30:49;3.47;;;1.30;;
26223;SDS011;14820;48.682;8.890;2022-10-22T13:33:31;2.63;;;0.80;;
26223;SDS011;14820;48.682;8.890;2022-10-22T13:35:58;4.43;;;0.80;;
26223;SDS011;14820;48.682;8.890;2022-10-22T13:38:25;3.78;;;0.93;;
26223;SDS011;14820;48.682;8.890;2022-10-22T13:40:51;3.17;;;1.60;;
26223;SDS011;14820;48.682;8.890;2022-10-22T13:43:18;3.17;;;0.90;;
26223;SDS011;14820;48.682;8.890;2022-10-22T13:45:44;1.65;;;0.80;;
26223;SDS011;14820;48.682;8.890;2022-10-22T13:48:12;1.95;;;0.90;;
26223;SDS011;14820;48.682;8.890;2022-10-22T13:50:40;3.42;;;1.00;;
26223;SDS011;14820;48.682;8.890;2022-10-22T13:53:12;2.72;;;1.00;;
26223;SDS011;14820;48.682;8.890;2022-10-22T13:55:42;4.15;;;1.02;;
26223;SDS011;14820;48.682;8.890;2022-10-22T13:58:15;3.17;;;1.05;;
26223;SDS011;14820;48.682;8.890;2022-10-22T14:00:44;3.08;;;1.00;;
26223;SDS011;14820;48.682;8.890;2022-10-22T14:03:16;2.33;;;0.95;;
26223;SDS011;14820;48.682;8.890;2022-10-22T14:05:44;6.93;;;1.10;;
26223;SDS011;14820;48.682;8.890;2022-10-22T14:08:11;5.50;;;1.05;;
26223;SDS011;14820;48.682;8.890;2022-10-22T14:10:40;2.85;;;1.00;;
26223;SDS011;14820;48.682;8.890;2022-10-22T14:13:06;2.17;;;0.80;;
26223;SDS011;14820;48.682;8.890;2022-10-22T14:15:36;4.50;;;0.90;;
26223;SDS011;14820;48.682;8.890;2022-10-22T14:18:03;3.17;;;1.05;;
26223;SDS011;14820;48.682;8.890;2022-10-22T14:20:31;2.10;;;0.82;;
26223;SDS011;14820;48.682;8.890;2022-10-22T14:23:07;3.28;;;0.60;;
26223;SDS011;14820;48.682;8.890;2022-10-22T14:25:37;2.33;;;0.80;;
26223;SDS011;14820;48.682;8.890;2022-10-22T14:28:03;1.60;;;0.80;;
26223;SDS011;14820;48.682;8.890;2022-10-22T14:30:29;5.55;;;0.90;;
26223;SDS011;14820;48.682;8.890;2022-10-22T14:32:56;3.38;;;1.48;;
26223;SDS011;14820;48.682;8.890;2022-10-22T14:35:23;2.13;;;1.10;;
26223;SDS011;14820;48.682;8.890;2022-10-22T14:37:49;2.83;;;1.10;;
26223;SDS011;14820;48.682;8.890;2022-10-22T14:40:16;4.10;;;0.90;;
26223;SDS011;14820;48.682;8.890;2022-10-22T14:42:44;3.65;;;0.85;;
26223;SDS011;14820;48.682;8.890;2022-10-22T14:45:16;3.58;;;0.80;;
26223;SDS011;14820;48.682;8.890;2022-10-22T14:47:49;1.92;;;1.20;;
26223;SDS011;14820;48.682;8.890;2022-10-22T14:50:16;2.88;;;1.30;;
26223;SDS011;14820;48.682;8.890;2022-10-22T14:52:42;2.97;;;1.17;;
26223;SDS011;14820;48.682;8.890;2022-10-22T14:55:10;3.03;;;1.10;;
26223;SDS011;14820;48.682;8.890;2022-10-22T14:57:38;3.15;;;1.20;;
26223;SDS011;14820;48.682;8.890;2022-10-22T15:00:16;4.53;;;1.63;;
26223;SDS011;14820;48.682;8.890;2022-10-22T15:02:43;3.83;;;1.17;;
26223;SDS011;14820;48.682;8.890;2022-10-22T15:05:09;6.60;;;1.15;;
26223;SDS011;14820;48.682;8.890;2022-10-22T15:07:35;3.97;;;1.10;;
26223;SDS011;14820;48.682;8.890;2022-10-22T15:10:01;2.92;;;1.17;;
26223;SDS011;14820;48.682;8.890;2022-10-22T15:12:27;7.32;;;1.50;;
26223;SDS011;14820;48.682;8.890;2022-10-22T15:14:52;3.70;;;1.30;;
26223;SDS011;14820;48.682;8.890;2022-10-22T15:17:18;2.63;;;1.20;;
26223;SDS011;14820;48.682;8.890;2022-10-22T15:19:44;3.35;;;1.25;;
26223;SDS011;14820;48.682;8.890;2022-10-22T15:22:10;3.70;;;1.23;;
26223;SDS011;14820;48.682;8.890;2022-10-22T15:24:37;2.17;;;1.20;;
26223;SDS011;14820;48.682;8.890;2022-10-22T15:27:03;2.63;;;1.33;;
26223;SDS011;14820;48.682;8.890;2022-10-22T15:29:29;2.92;;;1.40;;
26223;SDS011;14820;48.682;8.890;2022-10-22T15:31:56;2.70;;;1.30;;
26223;SDS011;14820;48.682;8.890;2022-10-22T15:34:27;2.67;;;1.17;;
26223;SDS011;14820;48.682;8.890;2022-10-22T15:36:55;3.45;;;1.10;;
26223;SDS011;14820;48.682;8.890;2022-10-22T15:39:22;2.50;;;1.48;;
26223;SDS011;14820;48.682;8.890;2022-10-22T15:41:49;2.50;;;1.42;;
26223;SDS011;14820;48.682;8.890;2022-10-22T15:44:19;4.93;;;1.90;;
26223;SDS011;14820;48.682;8.890;2022-10-22T15:46:49;4.55;;;1.73;;
26223;SDS011;14820;48.682;8.890;2022-10-22T15:49:16;4.10;;;1.60;;
26223;SDS011;14820;48.682;8.890;2022-10-22T15:51:42;3.78;;;1.80;;
26223;SDS011;14820;48.682;8.890;2022-10-22T15:54:11;6.07;;;2.53;;
26223;SDS011;14820;48.682;8.890;2022-10-22T15:56:39;4.18;;;2.50;;
26223;SDS011;14820;48.682;8.890;2022-10-22T15:59:05;5.25;;;2.33;;
26223;SDS011;14820;48.682;8.890;2022-10-22T16:01:31;5.22;;;2.35;;
26223;SDS011;14820;48.682;8.890;2022-10-22T16:03:59;4.03;;;2.28;;
26223;SDS011;14820;48.682;8.890;2022-10-22T16:06:29;9.88;;;4.78;;
26223;SDS011;14820;48.682;8.890;2022-10-22T16:09:00;7.68;;;2.30;;
26223;SDS011;14820;48.682;8.890;2022-10-22T16:11:28;6.78;;;1.60;;
26223;SDS011;14820;48.682;8.890;2022-10-22T16:13:55;7.95;;;1.40;;
26223;SDS011;14820;48.682;8.890;2022-10-22T16:16:26;5.10;;;1.25;;
26223;SDS011;14820;48.682;8.890;2022-10-22T16:18:53;6.35;;;1.40;;
26223;SDS011;14820;48.682;8.890;2022-10-22T16:21:19;8.38;;;1.60;;
26223;SDS011;14820;48.682;8.890;2022-10-22T16:23:46;4.60;;;1.60;;
26223;SDS011;14820;48.682;8.890;2022-10-22T16:26:12;4.68;;;1.88;;
26223;SDS011;14820;48.682;8.890;2022-10-22T16:28:39;7.38;;;1.50;;
26223;SDS011;14820;48.682;8.890;2022-10-22T16:31:06;4.90;;;1.70;;
26223;SDS011;14820;48.682;8.890;2022-10-22T16:33:34;5.55;;;1.70;;
26223;SDS011;14820;48.682;8.890;2022-10-22T16:36:01;6.05;;;3.13;;
26223;SDS011;14820;48.682;8.890;2022-10-22T16:38:27;7.68;;;2.50;;
26223;SDS011;14820;48.682;8.890;2022-10-22T16:41:05;4.65;;;1.90;;
26223;SDS011;14820;48.682;8.890;2022-10-22T16:43:38;5.20;;;1.77;;
26223;SDS011;14820;48.682;8.890;2022-10-22T16:46:08;7.60;;;1.70;;
26223;SDS011;14820;48.682;8.890;2022-10-22T16:48:35;4.57;;;1.58;;
26223;SDS011;14820;48.682;8.890;2022-10-22T16:51:07;5.20;;;1.60;;
26223;SDS011;14820;48.682;8.890;2022-10-22T16:53:34;8.50;;;1.70;;
26223;SDS011;14820;48.682;8.890;2022-10-22T16:56:00;9.63;;;1.63;;
26223;SDS011;14820;48.682;8.890;2022-10-22T16:58:26;5.68;;;1.70;;
26223;SDS011;14820;48.682;8.890;2022-10-22T17:00:52;5.65;;;1.90;;
26223;SDS011;14820;48.682;8.890;2022-10-22T17:03:20;5.80;;;1.80;;